Eubank, Kentucky
Current Conditions -  °F | °C
As of 6:15 PM on Tuesday 25 Nov 2014 (Local Time) from KSME Reporting Station
Clear Clear  
Wind Chill: 43°   Ceiling: Unl
Heat Index: 43°   Visibility: 10mi
Dew Point: 30°   Wind: 3mph
Humidity: 61%   Direction: 330°NNW
Pressure: 30.12"   Gusts: NA
Location:  37.28°N, 84.66°W
Report Text: KSME 252315Z AUTO 33003KT 10SM CLR 06/M01 A3012 RMK AO2
Loading
Personal Weather Stations






























Interactive Weather Map New forecast layout! Learn more

10-Day Weather Forecast

Advertisements
Track Severe Weather on mobile